Time;durP1;ratioP1;P1;durP2;ratioP2;P2;SDS_P1;SDS_P2;PMS_P1;PMS_P2;Temp;Humidity;BMP_temperature;BMP_pressure;BME280_temperature;BME280_humidity;BME280_pressure;Samples;Min_cycle;Max_cycle;Signal;HPM_P1;HPM_P2
2022/07/02 00:00:02;;;;;;;8.27;2.67;;;25.80;82.60;;;;;;5046705;28;20032;-76
2022/07/02 00:02:30;;;;;;;4.40;2.10;;;25.80;83.50;;;;;;5049203;28;20089;-68
2022/07/02 00:05:04;;;;;;;3.15;1.92;;;25.80;83.60;;;;;;5053637;28;20071;-67
2022/07/02 00:07:30;;;;;;;2.67;1.75;;;25.80;83.00;;;;;;5054987;28;20588;-67
2022/07/02 00:09:57;;;;;;;3.05;2.00;;;25.80;82.10;;;;;;5049023;28;20043;-68
2022/07/02 00:12:24;;;;;;;2.53;1.70;;;25.60;81.20;;;;;;5053463;28;20032;-67
2022/07/02 00:14:58;;;;;;;3.38;1.85;;;25.40;81.70;;;;;;5048546;28;20032;-67
2022/07/02 00:17:25;;;;;;;3.83;2.20;;;25.30;83.70;;;;;;5049596;28;20025;-67
2022/07/02 00:19:52;;;;;;;5.22;1.70;;;25.30;83.20;;;;;;5051387;28;21638;-67
2022/07/02 00:22:19;;;;;;;3.17;1.70;;;25.30;83.00;;;;;;5051252;28;20032;-75
2022/07/02 00:24:44;;;;;;;1.73;1.60;;;25.30;82.90;;;;;;5051803;28;20025;-77
2022/07/02 00:27:15;;;;;;;2.90;1.95;;;25.30;83.00;;;;;;5055416;28;20051;-76
2022/07/02 00:29:47;;;;;;;2.20;1.70;;;25.10;83.90;;;;;;5055298;28;20535;-77
2022/07/02 00:32:13;;;;;;;2.28;1.90;;;24.90;84.10;;;;;;5054615;28;20044;-77
2022/07/02 00:34:38;;;;;;;2.92;1.80;;;24.90;85.80;;;;;;5053931;28;20525;-76
2022/07/02 00:37:10;;;;;;;2.30;2.15;;;24.90;85.30;;;;;;5056585;28;20056;-77
2022/07/02 00:39:36;;;;;;;2.97;1.92;;;24.90;85.40;;;;;;5058806;28;20048;-71
2022/07/02 00:42:04;;;;;;;1.80;1.40;;;24.90;84.80;;;;;;5054477;28;20037;-72
2022/07/02 00:44:30;;;;;;;3.50;1.52;;;24.80;81.20;;;;;;5057452;28;20087;-77
2022/07/02 00:47:04;;;;;;;5.38;1.95;;;24.80;83.30;;;;;;5054559;28;20045;-71
2022/07/02 00:49:32;;;;;;;3.47;1.80;;;24.70;84.00;;;;;;5053472;28;20129;-71
2022/07/02 00:51:59;;;;;;;2.22;1.75;;;24.60;83.70;;;;;;5052682;28;20012;-71
2022/07/02 00:54:25;;;;;;;1.73;1.48;;;24.70;83.30;;;;;;5057565;28;20028;-71
2022/07/02 00:56:52;;;;;;;6.13;2.00;;;24.80;83.30;;;;;;5055676;28;20048;-70
2022/07/02 00:59:19;;;;;;;3.72;1.55;;;24.80;83.00;;;;;;5052660;28;20102;-68
2022/07/02 01:01:45;;;;;;;1.58;1.38;;;24.80;81.10;;;;;;5057015;28;20502;-69
2022/07/02 01:04:13;;;;;;;1.77;1.33;;;24.80;81.50;;;;;;5059371;28;20093;-69
2022/07/02 01:06:41;;;;;;;2.47;1.23;;;24.80;80.40;;;;;;5058766;28;20025;-68
2022/07/02 01:11:57;;;;;;;1.65;1.45;;;24.80;81.50;;;;;;5051070;28;20074;-68
2022/07/02 01:14:24;;;;;;;2.15;1.30;;;24.80;81.60;;;;;;5056874;28;20044;-68
2022/07/02 01:16:50;;;;;;;1.60;1.50;;;24.80;80.40;;;;;;5053873;28;20032;-73
2022/07/02 01:19:18;;;;;;;3.17;1.40;;;24.80;80.80;;;;;;5055361;28;20339;-70
2022/07/02 01:22:11;;;;;;;2.05;1.40;;;24.80;81.30;;;;;;5054703;28;20025;-69
2022/07/02 01:24:37;;;;;;;1.50;1.40;;;24.70;81.90;;;;;;5056624;28;20063;-70
2022/07/02 01:27:03;;;;;;;1.73;1.58;;;24.60;83.00;;;;;;5054793;28;20502;-68
2022/07/02 01:29:29;;;;;;;2.83;1.55;;;24.60;83.70;;;;;;5051120;28;20036;-69
2022/07/02 01:31:55;;;;;;;1.42;1.33;;;24.50;83.40;;;;;;5050861;28;20024;-69
2022/07/02 01:34:20;;;;;;;1.60;1.50;;;24.50;83.90;;;;;;5038432;28;20024;-69
2022/07/02 01:36:47;;;;;;;1.75;1.65;;;24.40;84.20;;;;;;5053280;28;20037;-69
2022/07/02 01:39:13;;;;;;;1.60;1.50;;;24.40;84.40;;;;;;5039441;28;20032;-73
2022/07/02 01:41:38;;;;;;;4.07;1.45;;;24.30;85.10;;;;;;5051164;28;20032;-74
2022/07/02 01:44:04;;;;;;;1.83;1.60;;;24.20;85.60;;;;;;5039485;28;20485;-73
2022/07/02 01:46:30;;;;;;;2.05;1.70;;;24.20;85.20;;;;;;5035419;28;20793;-73
2022/07/02 01:48:56;;;;;;;1.67;1.40;;;24.10;85.90;;;;;;5055746;28;20055;-72
2022/07/02 01:51:21;;;;;;;1.98;1.73;;;24.10;86.50;;;;;;5049078;28;20040;-72
2022/07/02 01:53:47;;;;;;;1.80;1.70;;;24.00;86.50;;;;;;5050007;28;20401;-73
2022/07/02 01:56:13;;;;;;;1.73;1.48;;;23.90;86.80;;;;;;5054099;28;20100;-69
2022/07/02 01:58:39;;;;;;;3.53;1.70;;;23.80;87.60;;;;;;5053215;28;20502;-69
2022/07/02 02:01:04;;;;;;;1.88;1.70;;;23.70;88.30;;;;;;5032914;28;20032;-69
2022/07/02 02:03:30;;;;;;;2.33;2.00;;;23.60;89.50;;;;;;5047405;28;20044;-69
2022/07/02 02:05:55;;;;;;;4.28;2.60;;;23.50;90.40;;;;;;5049075;28;20025;-68
2022/07/02 02:08:21;;;;;;;2.80;2.13;;;23.10;91.50;;;;;;5047042;28;20557;-69
2022/07/02 02:10:47;;;;;;;2.25;2.00;;;22.70;92.90;;;;;;5046140;28;20024;-67
2022/07/02 02:13:12;;;;;;;4.75;2.25;;;22.40;92.90;;;;;;5049415;28;20067;-72
2022/07/02 02:15:38;;;;;;;2.38;2.17;;;22.30;93.20;;;;;;5049162;28;20207;-68
2022/07/02 02:18:04;;;;;;;2.67;2.30;;;22.20;93.90;;;;;;5047872;28;20135;-69
2022/07/02 02:20:29;;;;;;;2.80;2.10;;;22.00;94.90;;;;;;5044247;28;20029;-67
2022/07/02 02:22:55;;;;;;;5.05;3.08;;;21.70;95.40;;;;;;5051228;28;20393;-68
2022/07/02 02:25:21;;;;;;;5.97;2.08;;;21.60;95.80;;;;;;5046393;28;20108;-68
2022/07/02 02:27:47;;;;;;;2.40;2.20;;;21.60;96.20;;;;;;5049602;28;20035;-69
2022/07/02 02:30:13;;;;;;;1.65;1.48;;;21.60;96.60;;;;;;5044617;28;20042;-68
2022/07/02 02:32:39;;;;;;;2.47;1.60;;;21.50;97.20;;;;;;5044393;28;20086;-69
2022/07/02 02:35:06;;;;;;;1.52;1.30;;;21.30;97.40;;;;;;5049710;28;20033;-73
2022/07/02 02:37:32;;;;;;;1.80;1.40;;;21.30;98.00;;;;;;5048912;28;20080;-74
2022/07/02 02:39:58;;;;;;;2.63;1.40;;;21.10;98.40;;;;;;5049271;28;20123;-75
2022/07/02 02:42:23;;;;;;;1.40;1.30;;;21.10;98.60;;;;;;5049518;28;20435;-76
2022/07/02 02:44:49;;;;;;;1.45;1.10;;;21.00;98.70;;;;;;5050083;28;20027;-74
2022/07/02 02:47:14;;;;;;;1.27;1.00;;;21.00;98.80;;;;;;5045790;28;20380;-72
2022/07/02 02:49:40;;;;;;;5.78;1.27;;;21.00;98.70;;;;;;5046611;28;20179;-74
2022/07/02 02:52:06;;;;;;;2.90;1.20;;;21.10;98.90;;;;;;5043778;28;20055;-75
2022/07/02 02:54:32;;;;;;;3.38;0.98;;;21.10;98.70;;;;;;5046926;28;20036;-70
2022/07/02 02:56:58;;;;;;;3.00;1.00;;;21.20;98.60;;;;;;5046687;28;20963;-69
2022/07/02 02:59:23;;;;;;;3.22;1.17;;;21.30;98.50;;;;;;5043068;28;20036;-69
2022/07/02 03:01:49;;;;;;;1.48;1.02;;;21.40;98.60;;;;;;5046673;28;20093;-69
2022/07/02 03:04:15;;;;;;;4.07;1.00;;;21.50;98.00;;;;;;5048150;28;20423;-71
2022/07/02 03:06:40;;;;;;;0.82;0.77;;;21.60;97.90;;;;;;5044859;28;20589;-70
2022/07/02 03:09:06;;;;;;;2.67;0.90;;;21.50;97.90;;;;;;5049398;28;20665;-69
2022/07/02 03:11:33;;;;;;;0.77;0.77;;;21.30;98.10;;;;;;5045074;28;20033;-68
2022/07/02 03:13:58;;;;;;;0.65;0.65;;;21.10;98.60;;;;;;5046512;28;20067;-71
2022/07/02 03:16:24;;;;;;;1.80;1.02;;;20.90;99.00;;;;;;5047662;28;20025;-71
2022/07/02 03:18:50;;;;;;;3.60;0.88;;;20.80;99.30;;;;;;5049401;28;20032;-73
2022/07/02 03:21:16;;;;;;;1.35;0.90;;;20.80;99.40;;;;;;5033882;28;21388;-72
2022/07/02 03:23:41;;;;;;;2.90;0.70;;;20.80;99.40;;;;;;5047505;28;20373;-72
2022/07/02 03:26:07;;;;;;;1.15;0.98;;;20.90;99.20;;;;;;5049532;28;20667;-74
2022/07/02 03:28:33;;;;;;;2.33;1.13;;;21.00;99.10;;;;;;5051272;28;20040;-74
2022/07/02 03:30:58;;;;;;;1.17;1.08;;;21.10;99.00;;;;;;5049449;28;20025;-74
2022/07/02 03:33:25;;;;;;;1.27;1.17;;;21.10;99.00;;;;;;5053659;28;20040;-69
2022/07/02 03:35:50;;;;;;;2.60;1.10;;;21.20;99.00;;;;;;5051934;28;20701;-68
2022/07/02 03:38:16;;;;;;;1.52;1.10;;;21.20;99.00;;;;;;5045323;28;20720;-70
2022/07/02 03:40:42;;;;;;;1.00;0.90;;;21.20;99.00;;;;;;5050820;28;20032;-68
2022/07/02 03:43:08;;;;;;;1.30;1.17;;;21.10;99.20;;;;;;5052497;28;20036;-70
2022/07/02 03:45:33;;;;;;;1.50;1.30;;;21.00;99.30;;;;;;5035113;28;20036;-69
2022/07/02 03:47:59;;;;;;;5.38;1.27;;;20.90;99.60;;;;;;5049444;28;20040;-69
2022/07/02 03:50:25;;;;;;;1.98;1.40;;;20.90;99.80;;;;;;5054582;28;20223;-70
2022/07/02 03:52:50;;;;;;;1.30;1.20;;;20.90;99.80;;;;;;5050892;28;20025;-68
2022/07/02 03:55:16;;;;;;;2.00;1.33;;;20.90;99.90;;;;;;5044763;28;20124;-68
2022/07/02 03:57:41;;;;;;;3.15;1.27;;;20.90;99.90;;;;;;5053704;28;20025;-69
2022/07/02 04:00:08;;;;;;;1.33;1.23;;;20.90;99.90;;;;;;5050446;28;20032;-68
2022/07/02 04:02:33;;;;;;;1.25;1.15;;;21.10;99.90;;;;;;5048592;28;20443;-68
2022/07/02 04:04:59;;;;;;;2.25;1.10;;;21.30;99.80;;;;;;5049638;28;20040;-68
2022/07/02 04:07:25;;;;;;;7.60;1.50;;;21.50;99.50;;;;;;5047912;28;20074;-68
2022/07/02 04:09:50;;;;;;;1.60;1.08;;;21.60;99.40;;;;;;5049252;28;20097;-75
2022/07/02 04:12:17;;;;;;;1.48;1.20;;;21.80;98.90;;;;;;5048209;28;20036;-75
2022/07/02 04:14:42;;;;;;;1.33;1.20;;;21.70;98.80;;;;;;5050923;28;20079;-74
2022/07/02 04:17:08;;;;;;;1.25;1.10;;;21.70;98.90;;;;;;5052369;28;21030;-74
2022/07/02 04:19:34;;;;;;;6.00;1.10;;;21.60;99.10;;;;;;5054111;28;20082;-77
2022/07/02 04:22:01;;;;;;;3.92;1.27;;;21.50;99.40;;;;;;5049184;28;20032;-74
2022/07/02 04:24:28;;;;;;;16.23;1.90;;;21.50;99.60;;;;;;5048148;28;20332;-75
2022/07/02 04:26:54;;;;;;;2.53;1.25;;;21.50;99.50;;;;;;5051367;28;20028;-69
2022/07/02 04:29:20;;;;;;;1.70;1.42;;;21.60;99.40;;;;;;5051639;28;20037;-75
2022/07/02 04:31:46;;;;;;;1.83;1.50;;;21.70;99.20;;;;;;5048074;28;20032;-74
2022/07/02 04:34:12;;;;;;;2.75;1.17;;;21.80;99.30;;;;;;5052524;28;20028;-74
2022/07/02 04:36:39;;;;;;;1.30;1.20;;;21.90;99.10;;;;;;5050400;28;20032;-73
2022/07/02 04:39:05;;;;;;;1.73;1.23;;;22.00;99.20;;;;;;5048422;28;20028;-72
2022/07/02 04:41:32;;;;;;;1.40;1.20;;;22.10;99.00;;;;;;5051292;28;20035;-74
2022/07/02 04:43:58;;;;;;;1.38;1.13;;;22.10;98.90;;;;;;5042298;28;20091;-73
2022/07/02 04:46:24;;;;;;;1.30;1.20;;;22.20;99.00;;;;;;5050092;28;20037;-72
2022/07/02 04:48:50;;;;;;;2.00;1.10;;;22.30;98.70;;;;;;5050199;28;20386;-68
2022/07/02 04:51:17;;;;;;;2.28;1.40;;;22.30;98.50;;;;;;5047685;28;20024;-68
2022/07/02 04:53:43;;;;;;;3.60;1.30;;;22.40;98.70;;;;;;5049485;28;20040;-68
2022/07/02 04:56:08;;;;;;;1.23;1.23;;;22.50;98.50;;;;;;5051274;28;20028;-68
2022/07/02 04:58:34;;;;;;;1.67;1.33;;;22.50;98.30;;;;;;5052123;28;20311;-69
2022/07/02 05:01:00;;;;;;;2.08;1.40;;;22.60;98.70;;;;;;5049033;28;20032;-68
2022/07/02 05:03:26;;;;;;;3.55;1.50;;;22.60;98.60;;;;;;5045326;28;20089;-67
2022/07/02 05:05:51;;;;;;;1.73;1.30;;;22.60;98.50;;;;;;5046523;28;20041;-67
2022/07/02 05:08:20;;;;;;;3.25;1.73;;;22.70;98.50;;;;;;5049516;28;20029;-73
2022/07/02 05:10:47;;;;;;;2.05;1.30;;;22.90;98.10;;;;;;5046378;28;20032;-74
2022/07/02 05:13:12;;;;;;;2.42;1.10;;;23.00;97.60;;;;;;5052477;28;20108;-74
2022/07/02 05:15:39;;;;;;;1.50;1.40;;;23.10;97.40;;;;;;5056563;28;20108;-74
2022/07/02 05:18:05;;;;;;;2.28;1.50;;;23.10;97.50;;;;;;5054604;28;20079;-73
2022/07/02 05:20:30;;;;;;;2.42;1.80;;;23.10;97.60;;;;;;5049539;28;20032;-72
2022/07/02 05:22:56;;;;;;;2.35;1.70;;;23.20;97.30;;;;;;5051079;28;20034;-74
2022/07/02 05:25:22;;;;;;;3.33;1.60;;;23.30;97.20;;;;;;5052728;28;20089;-75
2022/07/02 05:27:47;;;;;;;1.80;1.23;;;23.40;97.30;;;;;;5053754;28;20115;-68
2022/07/02 05:30:13;;;;;;;1.38;1.27;;;23.40;97.00;;;;;;5055466;28;20064;-67
2022/07/02 05:32:39;;;;;;;1.48;1.38;;;23.50;96.70;;;;;;5055705;28;20484;-68
2022/07/02 05:35:05;;;;;;;4.75;2.67;;;23.40;96.90;;;;;;5054881;28;20398;-68
2022/07/02 05:37:30;;;;;;;2.10;1.95;;;23.40;97.10;;;;;;5053022;28;20068;-68
2022/07/02 05:39:56;;;;;;;1.55;1.42;;;23.50;97.00;;;;;;5055810;28;20602;-69
2022/07/02 05:42:21;;;;;;;2.97;1.27;;;23.50;96.80;;;;;;5049216;28;20437;-74
2022/07/02 05:44:47;;;;;;;4.13;1.70;;;23.50;96.70;;;;;;5053181;28;20028;-72
2022/07/02 05:47:13;;;;;;;1.70;1.60;;;23.60;96.70;;;;;;5053162;28;20024;-67
2022/07/02 05:49:38;;;;;;;2.00;1.70;;;23.60;96.40;;;;;;5054696;28;20033;-67
2022/07/02 05:52:04;;;;;;;2.53;1.50;;;23.70;96.20;;;;;;5053085;28;20127;-70
2022/07/02 05:54:30;;;;;;;14.98;2.47;;;23.70;96.60;;;;;;5049662;28;20576;-68
2022/07/02 05:56:55;;;;;;;9.98;2.05;;;23.70;96.50;;;;;;5052013;28;20036;-68
2022/07/02 05:59:22;;;;;;;1.58;1.48;;;23.80;96.40;;;;;;5055080;28;20033;-67
2022/07/02 06:01:48;;;;;;;3.35;2.10;;;23.90;96.40;;;;;;5058620;28;21969;-67
2022/07/02 06:04:14;;;;;;;2.47;1.60;;;24.00;96.40;;;;;;5051828;28;20020;-73
2022/07/02 06:09:24;;;;;;;1.52;1.42;;;24.20;96.10;;;;;;5052829;28;20063;-73
2022/07/02 06:11:50;;;;;;;2.05;1.30;;;24.20;96.00;;;;;;5051875;28;20502;-73
2022/07/02 06:14:15;;;;;;;2.05;1.58;;;24.30;95.80;;;;;;5052904;28;20078;-75
2022/07/02 06:16:41;;;;;;;5.85;1.60;;;24.40;95.70;;;;;;5055978;28;20040;-73
2022/07/02 06:19:07;;;;;;;3.47;2.05;;;24.50;95.40;;;;;;5036674;28;20040;-73
2022/07/02 06:21:34;;;;;;;1.55;1.42;;;24.40;95.30;;;;;;5051907;28;20040;-74
2022/07/02 06:23:59;;;;;;;1.63;1.52;;;24.50;95.40;;;;;;5052769;28;20041;-66
2022/07/02 06:26:25;;;;;;;4.60;1.27;;;24.50;95.50;;;;;;5050920;28;20437;-67
2022/07/02 06:28:50;;;;;;;1.70;1.60;;;24.60;95.40;;;;;;5051967;28;20053;-67
2022/07/02 06:31:16;;;;;;;1.40;1.40;;;24.70;95.20;;;;;;5051916;28;20502;-68
2022/07/02 06:33:42;;;;;;;1.50;1.40;;;24.80;95.00;;;;;;5057815;28;20513;-67
2022/07/02 06:36:11;;;;;;;3.80;1.70;;;24.80;94.70;;;;;;5053908;28;20028;-68
2022/07/02 06:38:38;;;;;;;2.80;1.50;;;24.80;94.80;;;;;;5051470;28;20052;-68
2022/07/02 06:42:18;;;;;;;1.60;1.50;;;24.80;94.40;;;;;;5052322;28;20037;-69
2022/07/02 06:43:49;;;;;;;1.60;1.50;;;24.70;94.50;;;;;;5052026;28;20498;-74
2022/07/02 06:46:15;;;;;;;3.50;1.30;;;24.60;94.70;;;;;;5050392;28;20040;-73
2022/07/02 06:48:40;;;;;;;2.05;1.70;;;24.60;95.00;;;;;;5052613;28;20024;-74
2022/07/02 06:51:06;;;;;;;8.38;1.70;;;24.70;94.60;;;;;;5034161;28;20035;-76
2022/07/02 06:53:32;;;;;;;2.35;1.58;;;24.70;94.70;;;;;;5051212;28;20032;-72
2022/07/02 06:55:57;;;;;;;1.70;1.60;;;24.60;94.60;;;;;;5051675;28;20039;-73
2022/07/02 06:58:23;;;;;;;1.52;1.30;;;24.70;94.80;;;;;;5046748;28;20122;-73
2022/07/02 07:00:48;;;;;;;1.50;1.40;;;24.70;94.50;;;;;;5048840;28;20116;-68
2022/07/02 07:03:14;;;;;;;1.42;1.33;;;24.80;94.60;;;;;;5047103;28;20408;-68
2022/07/02 07:05:45;;;;;;;7.20;2.13;;;24.80;94.40;;;;;;5052980;28;20495;-68
2022/07/02 07:08:11;;;;;;;1.65;1.55;;;24.70;94.70;;;;;;5047932;28;20046;-66
2022/07/02 07:10:36;;;;;;;2.47;1.50;;;24.70;94.90;;;;;;5035277;28;20028;-67
2022/07/02 07:13:02;;;;;;;2.50;1.70;;;24.80;94.60;;;;;;5050310;28;21513;-66
2022/07/02 07:15:28;;;;;;;2.10;1.85;;;24.80;95.20;;;;;;5044941;28;20032;-69
2022/07/02 07:17:54;;;;;;;3.17;1.73;;;24.90;94.90;;;;;;5054619;28;20557;-67
2022/07/02 07:20:26;;;;;;;3.75;1.92;;;25.00;94.60;;;;;;5050491;28;20028;-69
2022/07/02 07:22:53;;;;;;;2.70;2.10;;;25.10;94.50;;;;;;5048485;28;20366;-67
2022/07/02 07:25:19;;;;;;;2.03;1.38;;;25.10;94.10;;;;;;5047044;28;20099;-68
2022/07/02 07:27:45;;;;;;;3.45;1.60;;;25.30;94.20;;;;;;5046854;28;20017;-68
2022/07/02 07:30:11;;;;;;;1.70;1.58;;;25.30;93.50;;;;;;5050749;28;20029;-68
2022/07/02 07:32:37;;;;;;;8.80;1.70;;;25.40;94.00;;;;;;5048981;28;20509;-69
2022/07/02 07:35:03;;;;;;;10.00;2.35;;;25.40;93.30;;;;;;5046320;28;20029;-68
2022/07/02 07:37:29;;;;;;;2.30;2.10;;;25.50;93.90;;;;;;5044098;28;20685;-68
2022/07/02 07:39:55;;;;;;;2.15;1.77;;;25.60;93.80;;;;;;5045462;28;20079;-73
2022/07/02 07:42:22;;;;;;;1.83;1.73;;;25.80;93.30;;;;;;5050313;28;20028;-70
2022/07/02 07:44:49;;;;;;;2.78;1.73;;;25.80;93.00;;;;;;5047238;28;20039;-70
2022/07/02 07:47:15;;;;;;;2.15;2.05;;;25.80;93.40;;;;;;5033840;28;20082;-70
2022/07/02 07:49:41;;;;;;;3.38;1.75;;;25.90;92.90;;;;;;5046574;28;20094;-71
2022/07/02 07:52:07;;;;;;;2.08;1.60;;;25.90;92.70;;;;;;5044345;28;20032;-71
2022/07/02 07:54:33;;;;;;;10.85;2.10;;;25.90;92.90;;;;;;5032863;28;20029;-69
2022/07/02 07:56:59;;;;;;;1.98;1.80;;;25.90;92.30;;;;;;5048096;28;20040;-73
2022/07/02 07:59:25;;;;;;;4.70;1.85;;;25.90;92.90;;;;;;5052024;28;20025;-73
2022/07/02 08:01:50;;;;;;;2.10;1.90;;;26.00;92.90;;;;;;5050011;28;20535;-71
2022/07/02 08:04:16;;;;;;;6.40;1.95;;;26.20;92.20;;;;;;5044951;28;20029;-73
2022/07/02 08:06:42;;;;;;;2.13;2.00;;;26.20;92.40;;;;;;5044404;28;20439;-72
2022/07/02 08:09:08;;;;;;;2.20;2.00;;;26.30;92.00;;;;;;5039701;28;21230;-73
2022/07/02 08:11:33;;;;;;;4.38;2.20;;;26.20;91.70;;;;;;5045457;28;20036;-72
2022/07/02 08:13:59;;;;;;;2.00;1.80;;;26.10;92.20;;;;;;5050028;28;20515;-71
2022/07/02 08:16:25;;;;;;;3.08;2.05;;;26.20;91.80;;;;;;5046122;28;20056;-74
2022/07/02 08:18:50;;;;;;;3.30;2.10;;;26.10;91.80;;;;;;5040672;28;20029;-70
2022/07/02 08:21:16;;;;;;;7.00;2.60;;;26.00;91.60;;;;;;5042539;28;20025;-71
2022/07/02 08:23:42;;;;;;;8.65;2.20;;;26.10;91.80;;;;;;5046623;28;20107;-71
2022/07/02 08:26:08;;;;;;;3.90;2.22;;;26.20;91.70;;;;;;5046940;28;20043;-71
2022/07/02 08:28:33;;;;;;;17.20;2.72;;;26.20;91.70;;;;;;5045962;28;20090;-69
2022/07/02 08:31:00;;;;;;;2.95;2.15;;;26.30;91.80;;;;;;5044237;28;20028;-72
2022/07/02 08:33:26;;;;;;;6.28;1.95;;;26.40;91.40;;;;;;5033033;28;20059;-70
2022/07/02 08:35:52;;;;;;;4.78;2.20;;;26.40;91.50;;;;;;5048423;28;20887;-71
2022/07/02 08:38:17;;;;;;;4.28;2.15;;;26.50;90.80;;;;;;5051278;28;20041;-71
2022/07/02 08:40:44;;;;;;;3.45;1.88;;;26.40;90.60;;;;;;5049616;28;20389;-70
2022/07/02 08:43:14;;;;;;;4.28;2.08;;;26.40;91.10;;;;;;5050956;28;20166;-72
2022/07/02 08:45:42;;;;;;;7.13;2.67;;;26.40;90.70;;;;;;5048467;28;20032;-71
2022/07/02 08:48:09;;;;;;;2.97;2.05;;;26.50;91.30;;;;;;5052113;28;20109;-69
2022/07/02 08:50:35;;;;;;;2.50;2.30;;;26.50;90.00;;;;;;5048959;28;20032;-68
2022/07/02 08:53:04;;;;;;;3.05;2.33;;;26.50;90.20;;;;;;5047888;28;20645;-68
2022/07/02 08:55:32;;;;;;;2.60;2.17;;;26.60;90.50;;;;;;5052120;28;20127;-69
2022/07/02 08:57:58;;;;;;;7.28;2.50;;;26.60;90.00;;;;;;5040700;28;20388;-72
2022/07/02 09:00:25;;;;;;;3.22;2.13;;;26.60;90.10;;;;;;5052946;28;20028;-73
2022/07/02 09:02:53;;;;;;;2.30;2.13;;;26.60;90.40;;;;;;5050712;28;20111;-72
2022/07/02 09:05:21;;;;;;;3.95;2.20;;;26.70;89.80;;;;;;5043285;28;20086;-71
2022/07/02 09:07:47;;;;;;;3.38;2.22;;;26.70;89.50;;;;;;5044732;28;20036;-71
2022/07/02 09:10:17;;;;;;;2.63;1.95;;;26.80;90.00;;;;;;5050012;28;20109;-74
2022/07/02 09:12:43;;;;;;;3.00;2.25;;;26.80;90.30;;;;;;5056105;28;20052;-69
2022/07/02 09:15:10;;;;;;;2.58;2.28;;;26.90;90.10;;;;;;5050400;28;20176;-71
2022/07/02 09:17:36;;;;;;;3.58;2.42;;;27.00;90.00;;;;;;5055846;28;20031;-76
2022/07/02 09:20:04;;;;;;;4.93;2.72;;;27.00;89.50;;;;;;5048409;28;20037;-72
2022/07/02 09:22:34;;;;;;;2.53;2.33;;;27.10;89.40;;;;;;5058206;28;20623;-73
2022/07/02 09:25:12;;;;;;;5.70;2.07;;;27.20;89.50;;;;;;5051372;28;20041;-72
2022/07/02 09:27:38;;;;;;;3.63;2.17;;;27.20;87.10;;;;;;5055124;28;20079;-71
2022/07/02 09:30:06;;;;;;;2.55;2.35;;;27.20;89.00;;;;;;5051495;28;20458;-71
2022/07/02 09:32:40;;;;;;;2.45;2.25;;;27.20;89.40;;;;;;5058326;28;20047;-71
2022/07/02 09:35:06;;;;;;;51.55;13.05;;;27.30;88.00;;;;;;5055816;28;20088;-70
2022/07/02 09:37:33;;;;;;;9.32;3.00;;;27.30;89.80;;;;;;5053029;28;20047;-70
2022/07/02 09:40:02;;;;;;;18.10;5.07;;;27.40;87.30;;;;;;5055199;28;20024;-69
2022/07/02 09:42:34;;;;;;;3.58;2.50;;;27.50;88.40;;;;;;5051194;28;20029;-68
2022/07/02 09:45:02;;;;;;;4.72;2.65;;;27.50;88.00;;;;;;5051252;28;20662;-68
2022/07/02 09:47:39;;;;;;;3.22;2.40;;;27.60;86.30;;;;;;5055143;28;20262;-69
2022/07/02 09:50:12;;;;;;;8.15;2.75;;;27.60;86.50;;;;;;5051478;28;20091;-68
2022/07/02 09:52:56;;;;;;;3.05;2.38;;;27.60;89.30;;;;;;5033647;28;20128;-69
2022/07/02 09:55:26;;;;;;;5.55;2.85;;;27.70;86.70;;;;;;5046925;28;20810;-71
2022/07/02 09:58:00;;;;;;;9.90;4.18;;;27.70;86.60;;;;;;5029863;28;20116;-72
2022/07/02 10:00:28;;;;;;;45.75;10.20;;;27.70;88.20;;;;;;5032849;28;20574;-72
2022/07/02 10:02:57;;;;;;;4.18;2.83;;;27.70;86.30;;;;;;5049372;28;20882;-73
2022/07/02 10:05:33;;;;;;;9.43;2.90;;;27.70;85.70;;;;;;5049642;28;20321;-74
2022/07/02 10:08:06;;;;;;;5.95;3.10;;;27.70;85.50;;;;;;5048023;28;20140;-73
2022/07/02 10:10:40;;;;;;;4.10;2.50;;;27.70;86.70;;;;;;5049725;28;20119;-74
2022/07/02 10:13:10;;;;;;;4.55;3.22;;;27.80;87.10;;;;;;5057787;28;20512;-69
2022/07/02 10:15:40;;;;;;;2.83;2.63;;;27.80;84.50;;;;;;5049093;28;20050;-68
2022/07/02 10:18:06;;;;;;;3.97;2.70;;;27.90;85.80;;;;;;5050874;28;20056;-68
2022/07/02 10:20:33;;;;;;;3.65;3.08;;;27.90;88.30;;;;;;5052967;28;20094;-67
2022/07/02 10:23:02;;;;;;;4.15;2.80;;;28.10;87.00;;;;;;5051488;28;20051;-69
2022/07/02 10:25:29;;;;;;;4.45;3.22;;;28.10;85.00;;;;;;5042098;28;20057;-70
2022/07/02 10:27:55;;;;;;;4.93;2.70;;;28.10;85.10;;;;;;5047826;28;20029;-68
2022/07/02 10:30:27;;;;;;;3.00;2.72;;;28.10;85.10;;;;;;5042154;28;20082;-69
2022/07/02 10:33:04;;;;;;;2.90;2.70;;;28.10;84.20;;;;;;5036697;28;20020;-74
2022/07/02 10:35:32;;;;;;;4.25;2.65;;;28.20;85.10;;;;;;5048998;28;20497;-76
2022/07/02 10:38:00;;;;;;;3.50;2.97;;;28.20;83.70;;;;;;5050328;28;20053;-72
2022/07/02 10:40:27;;;;;;;5.22;3.13;;;28.10;82.40;;;;;;5050954;28;20426;-73
2022/07/02 10:42:57;;;;;;;3.85;2.63;;;28.10;83.70;;;;;;5053062;28;20429;-73
2022/07/02 10:45:23;;;;;;;2.67;2.38;;;28.10;82.40;;;;;;5051473;28;20083;-73
2022/07/02 10:48:06;;;;;;;2.40;2.13;;;28.10;83.00;;;;;;5045263;28;20057;-74
2022/07/02 10:50:35;;;;;;;4.43;2.47;;;28.10;81.60;;;;;;5051644;28;20032;-70
2022/07/02 10:53:14;;;;;;;2.80;2.38;;;28.10;82.20;;;;;;5048836;28;20029;-69
2022/07/02 10:55:42;;;;;;;2.97;2.60;;;28.10;82.20;;;;;;5050690;28;20030;-69
2022/07/02 10:58:17;;;;;;;2.25;2.05;;;28.10;82.00;;;;;;5045364;28;20025;-69
2022/07/02 11:00:43;;;;;;;2.40;2.20;;;28.20;81.00;;;;;;5047676;28;20036;-70
2022/07/02 11:03:19;;;;;;;2.67;2.05;;;28.20;82.70;;;;;;5048879;28;20060;-70
2022/07/02 11:06:05;;;;;;;2.85;2.28;;;28.30;81.80;;;;;;5046451;28;20043;-68
2022/07/02 11:08:50;;;;;;;4.30;2.05;;;28.40;79.90;;;;;;5049914;28;20035;-71
2022/07/02 11:11:40;;;;;;;8.82;2.58;;;28.40;79.80;;;;;;5049969;28;20035;-70
2022/07/02 11:14:11;;;;;;;2.65;2.25;;;28.40;81.10;;;;;;5049262;28;20043;-68
2022/07/02 11:16:46;;;;;;;4.03;1.97;;;28.50;79.60;;;;;;5055032;28;20098;-68
2022/07/02 11:19:20;;;;;;;2.90;1.63;;;28.50;78.20;;;;;;5050576;28;20366;-71
2022/07/02 11:21:47;;;;;;;1.98;1.80;;;28.40;77.30;;;;;;5051975;28;20532;-69
2022/07/02 11:24:20;;;;;;;3.30;2.08;;;28.30;77.20;;;;;;5052310;28;20029;-69
2022/07/02 11:26:46;;;;;;;5.22;1.70;;;28.30;78.90;;;;;;5051400;28;20110;-69
2022/07/02 11:29:12;;;;;;;4.82;2.00;;;28.40;79.80;;;;;;5055785;28;20040;-75
2022/07/02 11:31:44;;;;;;;2.22;1.70;;;28.50;78.70;;;;;;5055308;28;20055;-72
2022/07/02 11:34:10;;;;;;;;;;;28.60;78.50;;;;;;5054333;28;20020;-72
2022/07/02 11:36:38;;;;;;;2.10;1.70;;;28.70;76.70;;;;;;5050577;28;19923;-78
2022/07/02 11:39:09;;;;;;;2.90;1.75;;;28.60;76.40;;;;;;5053319;28;20519;-73
2022/07/02 11:41:35;;;;;;;4.60;1.87;;;28.50;74.50;;;;;;5052063;28;20029;-75
2022/07/02 11:44:15;;;;;;;4.38;1.80;;;28.40;77.30;;;;;;5055321;28;20385;-73
2022/07/02 11:46:42;;;;;;;2.72;2.03;;;28.50;75.20;;;;;;5052585;28;20039;-71
2022/07/02 11:49:15;;;;;;;3.35;2.05;;;28.60;77.30;;;;;;5053820;28;20090;-77
2022/07/02 11:51:44;;;;;;;6.68;1.80;;;28.60;74.80;;;;;;5052938;28;20053;-75
2022/07/02 11:54:11;;;;;;;3.53;1.77;;;28.70;78.30;;;;;;5045279;28;20036;-74
2022/07/02 11:56:40;;;;;;;2.38;1.50;;;28.80;75.60;;;;;;5054667;28;20091;-83
2022/07/02 11:59:11;;;;;;;2.25;1.80;;;28.80;74.20;;;;;;5052616;28;20052;-73
2022/07/02 12:01:39;;;;;;;1.95;1.65;;;28.80;77.20;;;;;;5053658;28;20040;-75
2022/07/02 12:04:09;;;;;;;4.10;1.80;;;28.90;74.90;;;;;;5048604;28;20389;-77
2022/07/02 12:06:37;;;;;;;3.10;1.73;;;28.90;71.30;;;;;;5048149;28;20136;-68
2022/07/02 12:09:09;;;;;;;1.60;1.50;;;28.80;73.50;;;;;;5035725;28;20045;-68
2022/07/02 12:11:36;;;;;;;2.15;1.60;;;28.90;72.00;;;;;;5049904;28;20084;-69
2022/07/02 12:14:03;;;;;;;2.65;1.83;;;29.00;75.40;;;;;;5032671;28;20037;-69
2022/07/02 12:16:29;;;;;;;1.90;1.65;;;29.10;73.30;;;;;;5053380;28;20013;-68
2022/07/02 12:19:07;;;;;;;3.90;1.80;;;29.10;74.60;;;;;;5051116;28;20094;-68
2022/07/02 12:21:39;;;;;;;4.45;2.10;;;29.20;73.20;;;;;;5055881;28;20031;-68
2022/07/02 12:24:22;;;;;;;145.70;11.25;;;29.10;72.70;;;;;;5051249;28;20047;-68
2022/07/02 12:26:50;;;;;;;3.30;2.20;;;29.10;71.90;;;;;;5052748;28;20032;-74
2022/07/02 12:32:06;;;;;;;1.70;1.45;;;29.30;73.20;;;;;;5054964;28;20023;-72
2022/07/02 12:34:48;;;;;;;3.88;1.85;;;29.30;72.60;;;;;;5055778;28;20033;-73
2022/07/02 12:37:30;;;;;;;2.05;1.58;;;29.10;73.20;;;;;;5049993;28;20041;-71
2022/07/02 12:40:07;;;;;;;2.75;1.70;;;29.10;74.20;;;;;;5052792;28;20096;-74
2022/07/02 12:42:44;;;;;;;4.03;1.80;;;29.20;75.60;;;;;;5062280;28;20031;-73
2022/07/02 12:45:09;;;;;;;2.58;1.90;;;29.40;73.20;;;;;;5052328;28;20033;-68
2022/07/02 12:47:39;;;;;;;3.53;1.83;;;29.30;73.30;;;;;;5058085;28;20037;-68
2022/07/02 12:50:06;;;;;;;2.08;1.92;;;29.30;74.60;;;;;;5054195;28;20051;-68
2022/07/02 12:52:47;;;;;;;2.10;1.90;;;29.30;74.90;;;;;;5052508;28;20033;-69
2022/07/02 12:55:24;;;;;;;3.55;1.75;;;29.40;75.50;;;;;;5054801;28;20115;-69